createdAt,value
2018-04-17T00:00:49.515Z,10.62
2018-04-17T00:01:49.533Z,10.65
2018-04-17T00:02:49.557Z,10.62
2018-04-17T00:03:49.569Z,10.71
2018-04-17T00:04:49.592Z,10.68
2018-04-17T00:05:49.616Z,10.76
2018-04-17T00:06:49.628Z,10.73
2018-04-17T00:07:49.646Z,10.78
2018-04-17T00:08:49.664Z,10.80
2018-04-17T00:09:49.681Z,10.80
2018-04-17T00:10:49.699Z,10.88
2018-04-17T00:11:49.720Z,10.89
2018-04-17T00:12:49.738Z,10.84
2018-04-17T00:13:49.756Z,10.89
2018-04-17T00:14:49.774Z,10.78
2018-04-17T00:15:49.792Z,10.84
2018-04-17T00:16:49.811Z,10.81
2018-04-17T00:17:49.829Z,10.78
2018-04-17T00:18:49.850Z,10.80
2018-04-17T00:19:49.867Z,10.76
2018-04-17T00:20:49.885Z,10.76
2018-04-17T00:21:49.911Z,10.68
2018-04-17T00:22:49.922Z,10.68
2018-04-17T00:23:49.941Z,10.60
2018-04-17T00:24:49.963Z,10.59
2018-04-17T00:25:49.976Z,10.66
2018-04-17T00:26:49.998Z,10.62
2018-04-17T00:27:50.017Z,10.59
2018-04-17T00:28:50.034Z,10.65
2018-04-17T00:29:50.053Z,10.58
2018-04-17T00:30:50.076Z,10.70
2018-04-17T00:31:50.091Z,10.68
2018-04-17T00:32:50.114Z,10.59
2018-04-17T00:33:50.126Z,10.63
2018-04-17T00:34:50.145Z,10.60
2018-04-17T00:35:50.163Z,10.62
2018-04-17T00:36:50.184Z,10.70
2018-04-17T00:37:50.200Z,10.65
2018-04-17T00:38:50.217Z,10.68
2018-04-17T00:39:50.239Z,10.62
2018-04-17T00:40:50.255Z,10.60
2018-04-17T00:41:50.273Z,10.68
2018-04-17T00:42:50.293Z,10.68
2018-04-17T00:43:50.311Z,10.62
2018-04-17T00:44:50.329Z,10.60
2018-04-17T00:45:50.346Z,10.65
2018-04-17T00:46:50.367Z,10.58
2018-04-17T00:47:50.390Z,10.58
2018-04-17T00:48:50.404Z,10.63
2018-04-17T00:49:50.422Z,10.59
2018-04-17T00:50:50.439Z,10.59
2018-04-17T00:51:50.461Z,10.59
2018-04-17T00:52:50.478Z,10.55
2018-04-17T00:53:50.497Z,10.63
2018-04-17T00:54:50.515Z,10.60
2018-04-17T00:55:50.533Z,10.59
2018-04-17T00:56:50.582Z,10.62
2018-04-17T00:57:50.569Z,10.62
2018-04-17T00:58:50.595Z,10.60
2018-04-17T00:59:50.608Z,10.46
2018-04-17T01:00:50.631Z,10.58
2018-04-17T01:01:50.644Z,10.60
2018-04-17T01:02:50.665Z,10.63
2018-04-17T01:03:50.684Z,10.68
2018-04-17T01:04:50.702Z,10.73
2018-04-17T01:05:50.718Z,10.71
2018-04-17T01:06:50.739Z,10.77
2018-04-17T01:07:50.756Z,10.63
2018-04-17T01:08:50.776Z,10.63
2018-04-17T01:09:50.792Z,10.65
2018-04-17T01:10:50.811Z,10.71
2018-04-17T01:11:50.831Z,10.65
2018-04-17T01:12:50.851Z,10.71
2018-04-17T01:13:50.865Z,10.63
2018-04-17T01:14:50.886Z,10.70
2018-04-17T01:15:50.902Z,10.68
2018-04-17T01:16:50.923Z,10.70
2018-04-17T01:17:50.942Z,10.76
2018-04-17T01:18:50.957Z,10.70
2018-04-17T01:19:50.977Z,10.74
2018-04-17T01:20:50.994Z,10.80
2018-04-17T01:21:51.011Z,10.71
2018-04-17T01:22:51.033Z,10.59
2018-04-17T01:23:51.050Z,10.65
2018-04-17T01:24:51.067Z,10.58
2018-04-17T01:25:51.092Z,10.55
2018-04-17T01:26:51.106Z,10.47
2018-04-17T01:27:51.123Z,10.55
2018-04-17T01:28:51.143Z,10.47
2018-04-17T01:29:51.164Z,10.47
2018-04-17T01:30:51.177Z,10.52
2018-04-17T01:31:51.202Z,10.52
2018-04-17T01:32:51.215Z,10.40
2018-04-17T01:33:51.233Z,10.44
2018-04-17T01:34:51.253Z,10.51
2018-04-17T01:35:51.272Z,10.52
2018-04-17T01:36:51.287Z,10.37
2018-04-17T01:37:51.306Z,10.26
2018-04-17T01:38:51.324Z,10.32
2018-04-17T01:39:51.342Z,10.24
2018-04-17T01:40:51.372Z,10.19
2018-04-17T01:41:51.378Z,10.04
2018-04-17T01:42:51.398Z,10.00
2018-04-17T01:43:51.426Z,9.94
2018-04-17T01:44:51.435Z,9.94
2018-04-17T01:45:51.453Z,9.97
2018-04-17T01:46:51.471Z,9.97
2018-04-17T01:47:51.495Z,9.86
2018-04-17T03:47:20.743Z,8.07
2018-04-17T03:48:20.730Z,8.02
2018-04-17T03:50:13.632Z,8.00
2018-04-17T03:51:13.637Z,8.02
2018-04-17T03:53:06.564Z,8.00
2018-04-17T03:54:06.553Z,8.03
2018-04-17T03:55:59.465Z,8.08
2018-04-17T03:56:59.473Z,8.02
2018-04-17T03:58:52.407Z,8.00
2018-04-17T03:59:52.397Z,8.04
2018-04-17T04:01:45.312Z,8.11
2018-04-17T04:02:45.341Z,8.08
2018-04-17T04:04:38.263Z,8.02
2018-04-17T04:05:38.251Z,8.00
2018-04-17T04:07:31.240Z,8.00
2018-04-17T04:08:31.179Z,8.00
2018-04-17T04:10:24.097Z,8.00
2018-04-17T04:11:24.108Z,8.08
2018-04-17T04:13:17.043Z,8.04
2018-04-17T04:14:17.034Z,8.07
2018-04-17T04:16:09.965Z,7.82
2018-04-17T04:17:09.967Z,7.85
2018-04-17T04:19:03.400Z,7.74
2018-04-17T04:20:03.392Z,7.71
2018-04-17T04:21:56.315Z,7.75
2018-04-17T04:22:56.325Z,7.71
2018-04-17T04:24:49.261Z,7.82
2018-04-17T04:25:49.259Z,7.79
2018-04-17T04:27:42.191Z,7.77
2018-04-17T04:28:42.184Z,7.74
2018-04-17T04:30:35.115Z,7.79
2018-04-17T04:31:35.116Z,7.74
2018-04-17T04:33:28.059Z,7.82
2018-04-17T04:34:28.051Z,7.87
2018-04-17T04:36:20.971Z,7.87
2018-04-17T04:37:20.983Z,7.90
2018-04-17T04:39:13.923Z,7.93
2018-04-17T04:40:13.916Z,7.89
2018-04-17T04:42:06.840Z,7.99
2018-04-17T04:43:06.848Z,8.02
2018-04-17T04:44:59.790Z,8.02
2018-04-17T04:45:59.780Z,8.10
2018-04-17T04:47:52.723Z,8.20
2018-04-17T04:48:52.719Z,8.25
2018-04-17T04:50:45.633Z,8.25
2018-04-17T04:51:45.645Z,8.22
2018-04-17T04:53:38.585Z,8.29
2018-04-17T04:54:38.579Z,8.29
2018-04-17T04:56:31.505Z,8.48
2018-04-17T04:57:31.512Z,8.42
2018-04-17T04:59:24.452Z,8.55
2018-04-17T05:00:24.444Z,8.63
2018-04-17T05:02:17.366Z,8.71
2018-04-17T05:03:17.378Z,8.86
2018-04-17T05:05:10.315Z,8.93
2018-04-17T05:06:10.311Z,9.09
2018-04-17T05:08:03.250Z,9.15
2018-04-17T05:09:03.244Z,9.31
2018-04-17T05:10:56.168Z,9.27
2018-04-17T05:11:56.179Z,9.45
2018-04-17T05:13:49.116Z,9.75
2018-04-17T05:14:49.113Z,9.88
2018-04-17T05:16:42.041Z,10.03
2018-04-17T05:17:42.051Z,10.04
2018-04-17T05:19:34.996Z,10.26
2018-04-17T05:20:34.994Z,10.43
2018-04-17T05:22:27.913Z,10.53
2018-04-17T05:23:27.932Z,10.59
2018-04-17T05:25:20.921Z,10.80
2018-04-17T05:26:20.876Z,10.99
2018-04-17T05:28:13.805Z,10.99
2018-04-17T05:29:13.803Z,11.02
2018-04-17T05:31:06.771Z,11.10
2018-04-17T05:32:06.741Z,11.01
2018-04-17T05:33:59.687Z,11.13
2018-04-17T05:34:59.679Z,11.09
2018-04-17T05:36:52.599Z,11.13
2018-04-17T05:37:52.617Z,11.19
2018-04-17T05:39:45.557Z,11.20
2018-04-17T05:40:45.552Z,11.03
2018-04-17T05:42:38.474Z,10.99
2018-04-17T05:43:38.488Z,11.13
2018-04-17T05:45:31.444Z,11.21
2018-04-17T05:46:31.418Z,11.24
2018-04-17T05:48:24.413Z,11.41
2018-04-17T05:49:24.366Z,11.52
2018-04-17T05:51:17.341Z,11.83
2018-04-17T05:52:17.298Z,11.90
2018-04-17T05:54:10.292Z,12.09
2018-04-17T05:55:10.241Z,12.21
2018-04-17T05:57:03.162Z,12.37
2018-04-17T05:58:03.172Z,12.56
2018-04-17T05:59:56.129Z,12.54
2018-04-17T06:00:56.123Z,12.60
2018-04-17T06:02:49.095Z,12.51
2018-04-17T06:03:49.056Z,12.49
2018-04-17T06:05:42.500Z,12.48
2018-04-17T06:06:42.496Z,12.48
2018-04-17T06:08:35.506Z,12.81
2018-04-17T06:09:35.488Z,12.70
2018-04-17T06:11:28.464Z,12.96
2018-04-17T06:12:28.451Z,13.17
2018-04-17T06:14:21.403Z,13.14
2018-04-17T06:15:21.398Z,12.97
2018-04-17T06:17:14.330Z,13.41
2018-04-17T06:18:14.348Z,13.79
2018-04-17T06:20:07.309Z,14.16
2018-04-17T06:21:07.304Z,14.46
2018-04-17T06:23:00.240Z,14.72
2018-04-17T06:24:00.252Z,14.56
2018-04-17T06:25:53.194Z,14.47
2018-04-17T06:26:53.197Z,14.53
2018-04-17T06:28:46.146Z,14.88
2018-04-17T06:29:46.138Z,15.27
2018-04-17T06:31:39.061Z,16.03
2018-04-17T06:32:39.078Z,16.35
2018-04-17T06:34:32.028Z,16.49
2018-04-17T06:35:32.027Z,16.40
2018-04-17T06:37:24.957Z,16.38
2018-04-17T06:38:24.976Z,16.73
2018-04-17T06:40:17.923Z,17.28
2018-04-17T06:41:17.928Z,17.62
2018-04-17T06:43:10.855Z,17.89
2018-04-17T06:44:10.868Z,17.95
2018-04-17T06:46:03.871Z,18.17
2018-04-17T06:47:03.821Z,18.40
2018-04-17T06:48:56.789Z,18.42
2018-04-17T06:49:56.779Z,18.34
2018-04-17T06:51:49.718Z,18.03
2018-04-17T06:52:49.783Z,18.13
2018-04-17T06:54:42.698Z,18.25
2018-04-17T06:55:42.701Z,18.33
2018-04-17T06:57:35.629Z,18.24
2018-04-17T06:58:35.646Z,18.39
2018-04-17T07:00:28.638Z,18.36
2018-04-17T07:01:28.601Z,18.29
2018-04-17T07:03:21.540Z,18.15
2018-04-17T07:04:21.561Z,18.12
2018-04-17T07:06:14.520Z,18.17
2018-04-17T07:07:14.520Z,18.29
2018-04-17T07:09:07.473Z,18.44
2018-04-17T07:10:07.476Z,18.50
2018-04-17T07:12:00.428Z,18.62
2018-04-17T07:13:00.441Z,18.64
2018-04-17T07:14:53.389Z,18.98
2018-04-17T07:15:53.390Z,19.08
2018-04-17T07:17:46.330Z,19.21
2018-04-17T07:18:46.352Z,19.21
2018-04-17T07:20:39.353Z,19.25
2018-04-17T07:21:39.374Z,19.32
2018-04-17T07:23:32.249Z,19.47
2018-04-17T07:24:32.271Z,19.35
2018-04-17T07:26:25.235Z,19.36
2018-04-17T07:27:25.236Z,19.11
2018-04-17T07:29:18.174Z,19.01
2018-04-17T07:30:18.192Z,19.05
2018-04-17T07:32:11.147Z,19.08
2018-04-17T07:33:11.151Z,19.02
2018-04-17T07:35:04.106Z,19.13
2018-04-17T07:36:04.111Z,19.20
2018-04-17T07:37:57.047Z,19.31
2018-04-17T07:38:57.065Z,19.24
2018-04-17T07:40:50.025Z,19.29
2018-04-17T07:41:50.028Z,19.21
2018-04-17T07:43:42.966Z,19.17
2018-04-17T07:44:42.990Z,19.15
2018-04-17T07:46:35.943Z,19.29
2018-04-17T07:47:35.947Z,19.18
2018-04-17T07:49:28.887Z,19.02
2018-04-17T07:50:28.916Z,18.97
2018-04-17T07:52:21.865Z,18.86
2018-04-17T07:53:21.871Z,18.68
2018-04-17T07:55:14.850Z,18.44
2018-04-17T07:56:14.831Z,18.37
2018-04-17T07:58:07.774Z,18.07
2018-04-17T07:59:07.788Z,18.17
2018-04-17T08:01:00.794Z,18.09
2018-04-17T08:02:00.758Z,18.18
2018-04-17T08:03:53.698Z,18.09
2018-04-17T08:04:53.717Z,18.04
2018-04-17T08:06:46.777Z,17.95
2018-04-17T08:07:46.774Z,18.04
2018-04-17T08:09:39.809Z,18.12
2018-04-17T08:10:39.832Z,18.10
2018-04-17T08:12:32.884Z,18.33
2018-04-17T08:13:32.885Z,18.28
2018-04-17T08:15:25.940Z,18.25
2018-04-17T08:16:25.946Z,18.40
2018-04-17T08:18:18.974Z,18.04
2018-04-17T08:19:18.993Z,17.87
2018-04-17T08:21:12.057Z,17.84
2018-04-17T08:22:12.051Z,17.84
2018-04-17T08:24:05.085Z,17.70
2018-04-17T08:25:05.104Z,17.59
2018-04-17T08:26:58.159Z,17.85
2018-04-17T08:27:58.201Z,17.81
2018-04-17T08:29:51.201Z,17.89
2018-04-17T08:30:51.211Z,17.92
2018-04-17T08:32:44.273Z,17.99
2018-04-17T08:33:44.269Z,18.03
2018-04-17T08:35:37.328Z,18.33
2018-04-17T08:36:37.325Z,18.55
2018-04-17T08:38:30.362Z,18.50
2018-04-17T08:39:30.378Z,18.59
2018-04-17T08:41:23.437Z,18.52
2018-04-17T08:42:23.434Z,18.43
2018-04-17T08:44:16.472Z,18.28
2018-04-17T08:45:16.498Z,18.40
2018-04-17T08:47:09.549Z,18.76
2018-04-17T08:48:09.549Z,18.77
2018-04-17T08:50:02.583Z,18.95
2018-04-17T08:51:02.606Z,18.84
2018-04-17T08:52:55.660Z,18.91
2018-04-17T08:53:55.688Z,18.97
2018-04-17T08:55:48.715Z,18.90
2018-04-17T08:56:48.805Z,19.02
2018-04-17T08:58:41.769Z,19.21
2018-04-17T08:59:41.799Z,19.31
2018-04-17T09:01:34.836Z,19.33
2018-04-17T09:02:34.823Z,19.11
2018-04-17T09:04:27.898Z,19.05
2018-04-17T09:05:27.881Z,19.18
2018-04-17T09:07:20.971Z,19.31
2018-04-17T09:08:20.935Z,19.32
2018-04-17T09:10:14.005Z,19.33
2018-04-17T09:11:13.995Z,19.47
2018-04-17T09:13:07.074Z,19.72
2018-04-17T09:14:07.067Z,19.61
2018-04-17T09:16:00.126Z,19.63
2018-04-17T09:17:00.209Z,19.65
2018-04-17T09:18:53.239Z,19.83
2018-04-17T09:19:53.260Z,19.91
2018-04-17T09:21:46.322Z,20.08
2018-04-17T09:22:46.316Z,20.20
2018-04-17T09:24:39.352Z,20.09
2018-04-17T09:25:39.370Z,19.87
2018-04-17T09:27:32.481Z,19.73
2018-04-17T09:28:32.429Z,19.88
2018-04-17T09:30:25.466Z,19.91
2018-04-17T09:31:25.480Z,19.95
2018-04-17T09:33:18.439Z,20.21
2018-04-17T09:34:18.435Z,20.28
2018-04-17T09:36:12.016Z,20.42
2018-04-17T09:37:11.895Z,20.47
2018-04-17T09:39:04.828Z,20.49
2018-04-17T09:40:04.915Z,20.51
2018-04-17T09:41:58.299Z,20.66
2018-04-17T09:42:58.296Z,20.61
2018-04-17T09:44:51.234Z,20.74
2018-04-17T09:45:51.252Z,20.83
2018-04-17T09:47:44.531Z,20.77
2018-04-17T09:48:44.207Z,20.76
2018-04-17T09:50:37.202Z,20.66
2018-04-17T09:51:37.161Z,20.58
2018-04-17T09:53:30.137Z,20.76
2018-04-17T09:54:30.136Z,20.65
2018-04-17T09:56:23.201Z,20.76
2018-04-17T09:57:23.188Z,20.81
2018-04-17T09:59:16.225Z,20.87
2018-04-17T10:00:16.247Z,20.99
2018-04-17T10:02:09.302Z,21.09
2018-04-17T10:03:09.302Z,21.08
2018-04-17T10:05:02.347Z,21.17
2018-04-17T10:06:02.358Z,21.14
2018-04-17T10:07:55.418Z,21.02
2018-04-17T10:08:55.461Z,20.98
2018-04-17T10:10:48.455Z,20.98
2018-04-17T10:11:48.467Z,21.05
2018-04-17T10:13:41.930Z,21.01
2018-04-17T10:14:41.927Z,21.11
2018-04-17T10:16:34.988Z,21.06
2018-04-17T10:17:34.987Z,20.99
2018-04-17T10:19:28.022Z,21.02
2018-04-17T10:20:28.046Z,20.98
2018-04-17T10:22:21.101Z,20.66
2018-04-17T10:23:21.095Z,20.76
2018-04-17T10:25:14.132Z,20.89
2018-04-17T10:26:14.151Z,20.95
2018-04-17T10:28:07.208Z,21.09
2018-04-17T10:29:07.207Z,21.09
2018-04-17T10:31:00.242Z,21.20
2018-04-17T10:32:00.267Z,21.21
2018-04-17T10:33:53.331Z,21.20
2018-04-17T10:34:53.318Z,20.99
2018-04-17T10:36:46.375Z,20.77
2018-04-17T10:37:46.372Z,20.64
2018-04-17T10:39:39.458Z,20.72
2018-04-17T10:40:39.429Z,20.79
2018-04-17T10:42:32.484Z,20.91
2018-04-17T10:43:32.489Z,21.05
2018-04-17T10:45:25.522Z,21.14
2018-04-17T10:46:25.573Z,21.21
2018-04-17T10:48:18.598Z,21.24
2018-04-17T10:49:18.593Z,21.50
2018-04-17T10:51:11.633Z,21.56
2018-04-17T10:52:11.651Z,21.41
2018-04-17T10:54:04.713Z,21.45
2018-04-17T10:55:04.707Z,21.44
2018-04-17T10:56:57.764Z,21.67
2018-04-17T10:57:57.763Z,21.64
2018-04-17T10:59:50.819Z,21.66
2018-04-17T11:00:50.821Z,21.75
2018-04-17T11:02:43.878Z,21.69
2018-04-17T11:03:43.873Z,21.69
2018-04-17T11:05:36.810Z,21.41
2018-04-17T11:06:36.831Z,21.46
2018-04-17T11:08:29.883Z,21.45
2018-04-17T11:09:29.885Z,21.53
2018-04-17T11:11:22.920Z,21.41
2018-04-17T11:12:22.938Z,21.29
2018-04-17T11:14:16.010Z,21.54
2018-04-17T11:15:15.997Z,21.53
2018-04-17T11:17:09.028Z,21.61
2018-04-17T11:18:09.052Z,21.75
2018-04-17T11:20:02.111Z,21.71
2018-04-17T11:21:02.107Z,21.74
2018-04-17T11:22:55.060Z,21.66
2018-04-17T11:23:55.067Z,21.46
2018-04-17T11:25:48.004Z,21.16
2018-04-17T11:26:48.023Z,21.19
2018-04-17T11:28:40.979Z,20.87
2018-04-17T11:29:40.980Z,21.02
2018-04-17T11:31:33.914Z,20.93
2018-04-17T11:32:33.935Z,21.06
2018-04-17T11:34:26.891Z,21.38
2018-04-17T11:35:26.894Z,21.44
2018-04-17T11:37:19.827Z,21.51
2018-04-17T11:38:19.855Z,21.48
2018-04-17T11:40:12.806Z,21.26
2018-04-17T11:41:12.807Z,21.11
2018-04-17T11:43:05.868Z,21.09
2018-04-17T11:44:05.833Z,21.14
2018-04-17T11:45:58.767Z,21.27
2018-04-17T11:46:58.785Z,21.36
2018-04-17T11:48:51.904Z,21.38
2018-04-17T11:49:51.750Z,21.38
2018-04-17T11:51:44.799Z,21.44
2018-04-17T11:52:44.822Z,21.50
2018-04-17T11:54:37.767Z,21.41
2018-04-17T11:55:37.777Z,21.35
2018-04-17T11:57:30.711Z,21.46
2018-04-17T11:58:30.729Z,21.44
2018-04-17T12:00:23.680Z,21.82
2018-04-17T12:01:23.680Z,21.94
2018-04-17T12:03:16.636Z,21.81
2018-04-17T12:04:16.635Z,21.99
2018-04-17T12:06:09.575Z,22.19
2018-04-17T12:07:09.597Z,22.28
2018-04-17T12:09:02.551Z,22.25
2018-04-17T12:10:02.555Z,22.31
2018-04-17T12:11:55.497Z,22.41
2018-04-17T12:12:55.515Z,22.46
2018-04-17T12:14:48.474Z,22.53
2018-04-17T12:15:48.477Z,22.39
2018-04-17T12:17:41.910Z,22.46
2018-04-17T12:18:41.928Z,22.39
2018-04-17T12:20:34.888Z,22.23
2018-04-17T12:21:34.884Z,21.99
2018-04-17T12:23:27.844Z,22.06
2018-04-17T12:24:27.842Z,21.99
2018-04-17T12:26:20.779Z,22.20
2018-04-17T12:27:20.803Z,22.38
2018-04-17T12:29:13.759Z,22.47
2018-04-17T12:30:13.759Z,22.53
2018-04-17T12:32:06.696Z,22.60
2018-04-17T12:33:06.716Z,22.50
2018-04-17T12:34:59.675Z,22.13
2018-04-17T12:35:59.673Z,22.07
2018-04-17T12:37:53.112Z,22.09
2018-04-17T12:38:53.129Z,22.10
2018-04-17T12:40:46.587Z,22.32
2018-04-17T12:41:46.589Z,22.09
2018-04-17T12:43:39.549Z,22.34
2018-04-17T12:44:39.543Z,22.38
2018-04-17T12:46:32.481Z,22.35
2018-04-17T12:47:32.503Z,22.38
2018-04-17T12:49:25.480Z,22.29
2018-04-17T12:50:25.463Z,22.12
2018-04-17T12:52:18.398Z,21.97
2018-04-17T12:53:18.419Z,22.12
2018-04-17T12:55:11.378Z,22.13
2018-04-17T12:56:11.377Z,21.85
2018-04-17T12:58:04.317Z,21.95
2018-04-17T12:59:04.337Z,22.04
2018-04-17T13:00:57.302Z,22.16
2018-04-17T13:01:57.294Z,22.20
2018-04-17T13:03:50.259Z,22.27
2018-04-17T13:04:50.257Z,22.22
2018-04-17T13:05:50.279Z,22.52
2018-04-17T13:06:50.307Z,22.49
2018-04-17T13:07:50.348Z,22.59
2018-04-17T13:08:50.363Z,22.62
2018-04-17T13:09:50.384Z,22.67
2018-04-17T13:10:50.410Z,22.74
2018-04-17T13:11:50.436Z,22.78
2018-04-17T13:12:50.462Z,22.64
2018-04-17T13:13:50.487Z,22.74
2018-04-17T13:14:50.513Z,22.59
2018-04-17T13:15:50.540Z,22.65
2018-04-17T13:16:50.565Z,22.35
2018-04-17T13:17:50.594Z,22.22
2018-04-17T13:18:50.617Z,22.34
2018-04-17T13:19:50.644Z,22.20
2018-04-17T13:20:50.677Z,22.12
2018-04-17T13:21:50.695Z,22.10
2018-04-17T13:22:50.719Z,22.06
2018-04-17T13:23:50.752Z,22.06
2018-04-17T13:24:50.772Z,22.16
2018-04-17T13:25:50.799Z,22.13
2018-04-17T13:26:50.825Z,22.17
2018-04-17T13:27:50.851Z,22.35
2018-04-17T13:28:50.877Z,22.46
2018-04-17T13:29:50.923Z,22.52
2018-04-17T13:30:50.932Z,22.53
2018-04-17T13:31:50.958Z,22.49
2018-04-17T13:32:50.984Z,22.56
2018-04-17T13:33:51.004Z,22.50
2018-04-17T13:34:51.027Z,22.62
2018-04-17T13:35:51.060Z,22.49
2018-04-17T13:36:51.089Z,22.46
2018-04-17T13:37:51.109Z,22.68
2018-04-17T13:38:51.131Z,22.64
2018-04-17T13:39:51.163Z,22.65
2018-04-17T13:40:51.182Z,22.60
2018-04-17T13:41:51.206Z,22.67
2018-04-17T13:42:51.234Z,22.67
2018-04-17T13:43:51.262Z,22.52
2018-04-17T13:44:51.287Z,22.25
2018-04-17T13:45:51.310Z,22.31
2018-04-17T13:46:51.339Z,22.20
2018-04-17T13:47:51.416Z,22.22
2018-04-17T13:48:51.387Z,22.46
2018-04-17T13:49:51.414Z,22.37
2018-04-17T13:50:51.441Z,22.27
2018-04-17T13:51:51.490Z,22.29
2018-04-17T13:52:51.492Z,22.34
2018-04-17T13:53:51.519Z,22.39
2018-04-17T13:54:51.543Z,22.47
2018-04-17T13:55:51.570Z,22.56
2018-04-17T13:56:51.594Z,22.64
2018-04-17T13:57:51.619Z,22.64
2018-04-17T13:58:51.645Z,22.67
2018-04-17T13:59:51.673Z,22.74
2018-04-17T14:00:51.700Z,22.82
2018-04-17T14:01:51.729Z,22.69
2018-04-17T14:02:51.749Z,22.65
2018-04-17T14:03:51.781Z,22.64
2018-04-17T14:04:51.807Z,22.52
2018-04-17T14:05:51.824Z,22.62
2018-04-17T14:06:51.852Z,22.50
2018-04-17T14:07:51.888Z,22.49
2018-04-17T14:08:51.904Z,22.49
2018-04-17T14:09:51.969Z,22.41
2018-04-17T14:10:51.957Z,22.39
2018-04-17T14:11:51.985Z,22.34
2018-04-17T14:12:52.009Z,22.47
2018-04-17T14:13:52.032Z,22.62
2018-04-17T14:14:52.058Z,22.69
2018-04-17T14:15:52.086Z,22.78
2018-04-17T14:16:52.107Z,22.75
2018-04-17T14:17:52.136Z,22.74
2018-04-17T14:18:52.162Z,22.77
2018-04-17T14:19:52.195Z,22.67
2018-04-17T14:20:52.214Z,22.59
2018-04-17T14:21:52.237Z,22.59
2018-04-17T14:22:52.265Z,22.59
2018-04-17T14:23:52.291Z,22.65
2018-04-17T14:24:52.317Z,22.65
2018-04-17T14:25:52.339Z,22.67
2018-04-17T14:26:52.371Z,22.59
2018-04-17T14:27:52.395Z,22.50
2018-04-17T14:28:52.419Z,22.59
2018-04-17T14:29:52.446Z,22.64
2018-04-17T14:30:52.472Z,22.57
2018-04-17T14:31:52.510Z,22.62
2018-04-17T14:32:52.527Z,22.59
2018-04-17T14:33:52.549Z,22.69
2018-04-17T14:34:52.573Z,22.68
2018-04-17T14:35:52.605Z,22.67
2018-04-17T14:36:52.631Z,22.64
2018-04-17T14:37:52.652Z,22.64
2018-04-17T14:38:52.676Z,22.65
2018-04-17T14:39:52.706Z,22.65
2018-04-17T14:40:52.732Z,22.65
2018-04-17T14:41:52.753Z,22.62
2018-04-17T14:42:52.782Z,22.75
2018-04-17T14:43:52.807Z,22.87
2018-04-17T14:44:52.834Z,22.74
2018-04-17T14:45:52.859Z,22.72
2018-04-17T14:46:52.884Z,22.75
2018-04-17T14:47:52.911Z,22.75
2018-04-17T14:48:52.937Z,22.77
2018-04-17T14:49:52.961Z,22.89
2018-04-17T14:50:52.989Z,23.01
2018-04-17T14:51:53.015Z,23.02
2018-04-17T14:52:53.041Z,22.96
2018-04-17T14:53:53.064Z,22.97
2018-04-17T14:54:53.091Z,22.94
2018-04-17T14:55:53.120Z,22.93
2018-04-17T14:56:53.143Z,22.89
2018-04-17T14:57:53.165Z,22.83
2018-04-17T14:58:53.198Z,22.89
2018-04-17T14:59:53.227Z,22.97
2018-04-17T15:00:53.251Z,23.05
2018-04-17T15:01:53.273Z,23.02
2018-04-17T15:02:53.306Z,23.08
2018-04-17T15:03:53.327Z,23.11
2018-04-17T15:04:53.351Z,23.08
2018-04-17T15:05:53.373Z,23.19
2018-04-17T15:06:53.403Z,23.20
2018-04-17T15:07:53.426Z,23.08
2018-04-17T15:08:53.473Z,23.14
2018-04-17T15:09:53.481Z,23.20
2018-04-17T15:10:53.508Z,23.24
2018-04-17T15:11:53.530Z,23.24
2018-04-17T15:12:53.560Z,23.24
2018-04-17T15:13:53.583Z,23.24
2018-04-17T15:14:53.612Z,23.24
2018-04-17T15:15:53.639Z,23.20
2018-04-17T15:16:53.671Z,23.14
2018-04-17T15:17:53.690Z,23.12
2018-04-17T15:18:53.719Z,23.09
2018-04-17T15:19:53.749Z,23.12
2018-04-17T15:20:53.767Z,23.12
2018-04-17T15:21:53.795Z,23.09
2018-04-17T15:22:53.820Z,23.14
2018-04-17T15:23:53.846Z,23.26
2018-04-17T15:24:53.869Z,23.11
2018-04-17T15:25:53.897Z,23.14
2018-04-17T15:26:53.925Z,23.08
2018-04-17T15:27:53.950Z,22.99
2018-04-17T15:28:53.979Z,23.02
2018-04-17T15:29:54.000Z,23.09
2018-04-17T15:30:54.026Z,23.15
2018-04-17T15:31:54.053Z,23.20
2018-04-17T15:32:54.082Z,23.27
2018-04-17T15:33:54.105Z,23.31
2018-04-17T15:34:54.135Z,23.34
2018-04-17T15:35:54.160Z,23.31
2018-04-17T15:36:54.193Z,23.19
2018-04-17T15:37:54.212Z,23.15
2018-04-17T15:38:54.239Z,23.15
2018-04-17T15:39:54.263Z,23.23
2018-04-17T15:40:54.292Z,23.32
2018-04-17T15:41:54.318Z,23.32
2018-04-17T15:42:54.344Z,23.34
2018-04-17T15:43:54.369Z,23.34
2018-04-17T15:44:54.399Z,23.29
2018-04-17T15:45:54.422Z,23.35
2018-04-17T15:46:54.445Z,23.34
2018-04-17T15:47:54.473Z,23.40
2018-04-17T15:48:54.503Z,23.31
2018-04-17T15:49:54.526Z,23.19
2018-04-17T15:50:54.553Z,23.08
2018-04-17T15:51:54.581Z,22.96
2018-04-17T15:52:54.606Z,23.01
2018-04-17T15:53:54.634Z,22.99
2018-04-17T15:54:54.661Z,22.96
2018-04-17T15:55:54.685Z,22.96
2018-04-17T15:56:54.710Z,22.90
2018-04-17T15:57:54.737Z,22.74
2018-04-17T15:58:54.762Z,22.78
2018-04-17T15:59:54.790Z,22.59
2018-04-17T16:00:54.812Z,22.59
2018-04-17T16:01:54.841Z,22.64
2018-04-17T16:02:54.868Z,22.59
2018-04-17T16:03:54.893Z,22.50
2018-04-17T16:04:54.918Z,22.50
2018-04-17T16:05:54.946Z,22.52
2018-04-17T16:06:54.972Z,22.50
2018-04-17T16:07:55.022Z,22.50
2018-04-17T16:08:55.022Z,22.62
2018-04-17T16:09:55.060Z,22.54
2018-04-17T16:10:55.077Z,22.59
2018-04-17T16:11:55.102Z,22.62
2018-04-17T16:12:55.162Z,22.49
2018-04-17T16:13:55.151Z,22.54
2018-04-17T16:14:55.181Z,22.53
2018-04-17T16:15:55.206Z,22.54
2018-04-17T16:16:55.229Z,22.47
2018-04-17T16:17:55.252Z,22.49
2018-04-17T16:18:55.281Z,22.47
2018-04-17T16:19:55.308Z,22.50
2018-04-17T16:20:55.334Z,22.54
2018-04-17T16:21:55.360Z,22.52
2018-04-17T16:22:55.386Z,22.60
2018-04-17T16:23:55.411Z,22.56
2018-04-17T16:24:55.442Z,22.49
2018-04-17T16:25:55.463Z,22.54
2018-04-17T16:26:55.486Z,22.57
2018-04-17T16:27:55.512Z,22.54
2018-04-17T16:28:55.538Z,22.59
2018-04-17T16:29:55.566Z,22.52
2018-04-17T16:30:55.593Z,22.60
2018-04-17T16:31:55.617Z,22.60
2018-04-17T16:32:55.643Z,22.54
2018-04-17T16:33:55.669Z,22.59
2018-04-17T16:34:55.694Z,22.62
2018-04-17T16:35:55.722Z,22.65
2018-04-17T16:36:55.748Z,22.60
2018-04-17T16:37:55.770Z,22.57
2018-04-17T16:38:55.797Z,22.67
2018-04-17T16:39:55.822Z,22.60
2018-04-17T16:40:55.850Z,22.59
2018-04-17T16:41:55.882Z,22.59
2018-04-17T16:42:55.902Z,22.67
2018-04-17T16:43:55.926Z,22.67
2018-04-17T16:44:55.954Z,22.50
2018-04-17T16:45:55.977Z,22.54
2018-04-17T16:46:56.005Z,22.47
2018-04-17T16:47:56.031Z,22.46
2018-04-17T16:48:56.054Z,22.43
2018-04-17T16:49:56.087Z,22.47
2018-04-17T16:50:56.110Z,22.41
2018-04-17T16:51:56.132Z,22.34
2018-04-17T16:52:56.161Z,22.25
2018-04-17T16:53:56.187Z,22.27
2018-04-17T16:54:56.209Z,22.20
2018-04-17T16:55:56.233Z,22.22
2018-04-17T16:56:56.262Z,22.17
2018-04-17T16:57:56.287Z,22.10
2018-04-17T16:58:56.312Z,22.07
2018-04-17T16:59:56.337Z,22.01
2018-04-17T17:00:56.363Z,22.02
2018-04-17T17:01:56.392Z,21.98
2018-04-17T17:02:56.420Z,21.90
2018-04-17T17:03:56.443Z,21.82
2018-04-17T17:04:56.467Z,21.94
2018-04-17T17:05:56.492Z,21.91
2018-04-17T17:06:56.514Z,21.88
2018-04-17T17:07:56.543Z,21.78
2018-04-17T17:08:56.569Z,21.78
2018-04-17T17:09:56.592Z,21.82
2018-04-17T17:10:56.619Z,21.76
2018-04-17T17:11:56.647Z,21.74
2018-04-17T17:12:56.669Z,21.71
2018-04-17T17:13:56.694Z,21.75
2018-04-17T17:14:56.720Z,21.69
2018-04-17T17:15:56.745Z,21.66
2018-04-17T17:16:56.770Z,21.63
2018-04-17T17:17:56.798Z,21.63
2018-04-17T17:18:56.821Z,21.51
2018-04-17T17:19:56.843Z,21.61
2018-04-17T17:20:56.872Z,21.56
2018-04-17T17:21:56.901Z,21.50
2018-04-17T17:22:56.921Z,21.54
2018-04-17T17:23:56.949Z,21.51
2018-04-17T17:24:56.975Z,21.46
2018-04-17T17:25:56.999Z,21.36
2018-04-17T17:26:57.022Z,21.41
2018-04-17T17:27:57.051Z,21.39
2018-04-17T17:28:57.077Z,21.26
2018-04-17T17:29:57.102Z,21.24
2018-04-17T17:30:57.125Z,21.16
2018-04-17T17:31:57.149Z,21.13
2018-04-17T17:32:57.176Z,21.09
2018-04-17T17:33:57.198Z,21.13
2018-04-17T17:34:57.229Z,21.04
2018-04-17T17:35:57.251Z,21.06
2018-04-17T17:36:57.276Z,20.99
2018-04-17T17:37:57.300Z,21.04
2018-04-17T17:38:57.324Z,20.87
2018-04-17T17:39:57.351Z,20.91
2018-04-17T17:40:57.375Z,20.84
2018-04-17T17:41:57.405Z,20.77
2018-04-17T17:42:57.430Z,20.66
2018-04-17T17:43:57.448Z,20.77